x

9410840 - Santa Monica Pier (icac1) Weather Station

3:54 - Sat 30th May 2015 All times are PDT. -7 hours from GMT.

  • Wind
    1mph, 3mph gusts
  • Sea Temp 63°f
  • Luft Temp 58°f
  • Sea Pressure 1013.1mb
  • 9410840 - Santa Monica Pier
  • 9410840 - Santa Monica Pier

More Historic Weather Station data

Upgrade to MSW Pro to gain access to the past 30 days of data for over 8000 Wavebouys and Weather Stations around the globe.

Join Pro

Comparision Forecast

View Surf forecast
   
Sa 05/30 3:54 1 3 mph 1013.1mb 63f 58f
3:48 3
mph
1013mb 63f 58f
3:42 2 3 mph 1013mb 63f 58f
3:36 2
mph
1013.1mb 63f 58f
3:30  -  1 mph 1013.1mb 63f 58f
3:24  -  1 mph 1013.1mb 63f 58f
3:18  -  2 mph 1013.1mb 64f 58f
3:12 2
mph
1013.2mb 64f 58f
3:06 1 2 mph 1013.2mb 64f 58f
3:00  -  2 mph 1013.2mb 64f 58f
2:54  -  2 mph 1013.2mb 64f 58f
2:48 2 3 mph 1013.2mb 64f 58f
2:42 1 2 mph 1013.2mb 64f 58f
2:36  -  1 mph 1013.3mb 64f 58f
2:30 1 5 mph 1013.4mb 64f 57f
2:24 5
mph
1013.4mb 64f 57f
2:18 5
mph
- 64f 57f
2:12 2 5 mph - 64f 58f
2:06 2 5 mph - 64f 57f
2:00 3
mph
1013.4mb 64f 58f
1:54 2 3 mph 1013.5mb 64f 57f
1:48 3 5 mph 1013.5mb 64f 57f
1:42 2 3 mph 1013.5mb 64f 58f
1:36 3 5 mph 1013.4mb 64f 57f
1:30 3 5 mph 1013.5mb 64f 57f
1:24 1 3 mph 1013.6mb 64f 57f
1:18 2
mph
1013.6mb 64f 57f
1:12  -  2 mph 1013.6mb 64f 57f
1:06 2 3 mph 1013.7mb 64f 57f
1:00 2 3 mph 1013.8mb 64f 57f
12:54  -  1 mph 1013.8mb 64f 57f
12:48 2 3 mph 1013.8mb 64f 57f
12:42 1 3 mph 1013.9mb 64f 57f
12:36  -  3 mph 1014mb 64f 57f
12:30 2 5 mph 1014.1mb 63f 57f
12:24 3 6 mph 1014.2mb 63f 57f
12:18 2 5 mph 1014.2mb 63f 57f
12:12 5 6 mph 1014.2mb 63f 57f
12:06 5 6 mph 1014.2mb 63f 57f
12:00 6 7 mph 1014.1mb 63f 57f
Fr 05/29 11:54 6 7 mph 1014.1mb 63f 57f
11:48  -  2 mph - 63f 58f
11:42 2 3 mph - 63f 58f
11:36 2 3 mph - 63f 58f
11:30 2 5 mph 1013.9mb 63f 58f
11:24 5
mph
1013.8mb 63f 58f
11:18 3 6 mph - 63f 58f
11:12 5 6 mph - 63f 58f
11:06 5 6 mph - 62f 58f
11:00 6
mph
1013.6mb 62f 58f
10:54 5 6 mph 1013.6mb 62f 58f
10:48 5 6 mph 1013.6mb 62f 58f
10:42 5 7 mph 1013.6mb 63f 58f
10:36 6 7 mph 1013.6mb 63f 58f
10:30 3 5 mph 1013.6mb 63f 59f
10:24 3 6 mph 1013.6mb 62f 58f
10:18 2 3 mph 1013.5mb 62f 58f
10:12  -  2 mph 1013.5mb 62f 58f
10:06 2 5 mph 1013.6mb 62f 58f
10:00  -  2 mph 1013.5mb 62f 58f
9:54  -  1 mph 1013.5mb 62f 58f
9:48 1 3 mph 1013.4mb 62f 58f
9:42 2 3 mph 1013.4mb 61f 58f
9:36 2 5 mph 1013.4mb 61f 58f
9:30 2
mph
1013.4mb 61f 58f
9:24 2 3 mph 1013.3mb 61f 58f
9:18 1 3 mph 1013.2mb 61f 58f
9:12 2 3 mph 1013.1mb 61f 59f
9:06  -  2 mph 1013.1mb 62f 59f
9:00 2
mph
1013.1mb 62f 58f
8:54 2 5 mph 1013.1mb 62f 58f
8:48 3 5 mph 1013.1mb 62f 58f
8:42 5 6 mph 1013.1mb 63f 58f
8:36 5 6 mph 1013.1mb 63f 58f
8:30 6 7 mph 1013.1mb 63f 59f
8:24 7 8 mph 1013mb 62f 59f
8:18 7 9 mph 1013mb 63f 59f
8:12 7 9 mph 1013mb 62f 59f
8:06 8 11 mph 1012.9mb 62f 59f
8:00 10 11 mph 1012.9mb 63f 59f
7:54 10 11 mph 1012.9mb 63f 59f
7:48 11 13 mph 1012.9mb 63f 59f
7:42 11 14 mph 1012.8mb 63f 59f
7:36 13 15 mph 1012.8mb 62f 59f
7:30 14 15 mph 1012.8mb 62f 59f
7:24 14 16 mph 1012.8mb 62f 59f
7:18 15 16 mph 1012.8mb 63f 60f
7:12 14 16 mph 1012.9mb 62f 60f
7:06 15 16 mph 1012.8mb 63f 60f
7:00 13 16 mph 1012.8mb 63f 60f
6:54 14 15 mph 1012.7mb 64f 60f
6:48 14 16 mph 1012.7mb 64f 61f
6:42 15 16 mph 1012.7mb 64f 61f
6:36 15 16 mph 1012.6mb 64f 61f
6:30 14 15 mph 1012.6mb 65f -
6:24 14
mph
1012.5mb 65f -
6:18 13 14 mph 1012.5mb 65f 61f
6:12 13 14 mph 1012.4mb 65f 61f
6:06 14
mph
1012.5mb 65f 61f
6:00 13 14 mph 1012.4mb 65f 61f
5:54 13 14 mph 1012.4mb 64f 61f
5:48 11 14 mph 1012.5mb 64f 61f
5:42 13 14 mph 1012.6mb 64f 61f
5:36 13 14 mph 1012.6mb 64f 61f
5:30 11 14 mph 1012.6mb 64f 61f
5:24 13 14 mph 1012.6mb 64f 61f
5:18 13 14 mph 1012.7mb 64f 61f
5:12 13 14 mph 1012.8mb 64f 62f
5:06 11 13 mph 1012.7mb 64f 62f
5:00 10
mph
1012.6mb 64f 62f
4:54 10 11 mph 1012.6mb 64f 62f
4:48 9 10 mph 1012.6mb 64f 62f
4:42 9 10 mph 1012.6mb 64f 62f
4:36 9
mph
1012.7mb 64f 62f
4:30 8 9 mph 1012.7mb 64f 62f
4:24 8
mph
1012.8mb 64f 61f
4:18 8 9 mph 1012.8mb 64f 61f
4:12 8 9 mph 1012.9mb 64f 62f
4:06 9 10 mph 1013mb 64f 61f
4:00 9 11 mph 1013.1mb 64f 61f
3:54 11
mph
1013.1mb 64f 61f
3:48 11 13 mph 1013.2mb 64f 61f
3:18 10
mph
1013.3mb 64f 61f
3:12 8 10 mph 1013.4mb 64f 61f
3:06 9 10 mph 1013.5mb 64f 61f
3:00 9 10 mph 1013.6mb 64f 61f
2:54 10 11 mph 1013.6mb 64f 61f
2:48 10 11 mph 1013.7mb 64f 61f
2:42 10 13 mph 1013.8mb 64f 61f
2:36 10 11 mph 1013.9mb 64f 61f
2:30  -  mph 1013.9mb 64f 61f
2:24 10 11 mph 1014mb 64f 61f
2:18 10 13 mph 1014.1mb 64f 61f
2:12 10 11 mph 1014.2mb 63f 61f
2:06 9 11 mph 1014.3mb 63f 61f
2:00 10 11 mph 1014.3mb 63f 61f
1:30  -  mph 1014.4mb - -
1:24  -  mph 1014.4mb - -
1:06  -  mph 1014.5mb - -
1:00  -  mph 1014.5mb - -
12:30 10 11 mph 1014.8mb 62f 61f
12:24 10 11 mph 1014.9mb 62f 61f
12:18 10 11 mph 1014.9mb 62f 61f
12:12 10
mph
1014.8mb 62f 61f
12:06 9 10 mph 1014.8mb 62f 61f
12:00 8 9 mph 1014.8mb 62f 61f
11:54 9
mph
1014.9mb 62f 61f
11:48 8 9 mph 1014.8mb 62f 61f
11:42 8 9 mph 1014.9mb 62f 61f
11:36 8 9 mph 1014.9mb 62f 61f
11:30 8 9 mph 1014.9mb 62f 61f
11:24 8 9 mph 1014.9mb 62f 61f
11:18 8
mph
1014.8mb 62f 61f
11:12 7
mph
1014.8mb 62f 61f
11:06 7 8 mph 1014.8mb 62f 61f
11:00 7 8 mph 1014.8mb 62f 61f
10:54 8
mph
1014.8mb 62f 61f
10:48 8
mph
1014.7mb 62f 61f
10:42 8
mph
1014.7mb 62f 61f
10:36 7 8 mph 1014.6mb 62f 61f
10:30 7 8 mph 1014.7mb 62f 61f
10:24 7 8 mph 1014.6mb 62f 61f
10:18 6 7 mph 1014.6mb 62f 61f
10:12 7
mph
1014.8mb 62f 61f
10:06 6 7 mph 1014.8mb 61f 61f
10:00 6
mph
1014.8mb 61f 61f
9:54 6
mph
1014.9mb 61f 61f
9:48 6
mph
1015mb 61f 61f
9:42 5 6 mph 1015mb 61f 61f
9:36 5
mph
1015.1mb 61f 61f
9:30 5
mph
1015mb 61f 61f
9:24 5
mph
1014.9mb 61f 61f
9:18 3 5 mph 1014.9mb 60f 61f
9:12 3 5 mph 1015mb 60f 61f
9:06 5 6 mph 1015mb 60f 61f
9:00 5
mph
1015mb 60f 60f
8:54 5
mph
1015mb 60f 60f
8:48 3 5 mph 1015.1mb 60f 60f
8:42 3
mph
1015.1mb 60f 60f
8:36 3
mph
1015.1mb 60f 60f
8:30 3
mph
1015.1mb 60f 60f
8:24 2 3 mph 1015.1mb 60f 60f
8:18 3 5 mph 1015mb 60f 60f
8:12 3 5 mph 1015mb 61f 60f
8:06 3 5 mph 1014.9mb 61f 60f
8:00 5
mph
1014.9mb 60f 60f
7:54 3
mph
1015mb 60f 60f
7:48 3
mph
1014.9mb 60f 60f
7:42 3 5 mph 1014.8mb 60f 60f
7:36 2 3 mph 1014.8mb 60f 60f
7:30 1 2 mph 1014.8mb 60f 60f
7:24 2 3 mph 1014.8mb 60f 60f
7:18 2 3 mph 1014.8mb 60f 60f
7:12 1 2 mph 1014.8mb 60f 60f
7:06  -  3 mph 1014.7mb 60f 60f
7:00 3
mph
1014.7mb 60f 60f
6:54 2 3 mph 1014.6mb 60f 60f
6:48 2 3 mph 1014.6mb 60f 60f
6:42 2 3 mph 1014.6mb 60f 59f
6:36 3 5 mph 1014.6mb 60f 59f
6:30 5
mph
1014.6mb 60f 59f
6:24 1 2 mph 1014.6mb 60f 59f
6:18 2 3 mph 1014.5mb 60f 59f
6:12  -  3 mph 1014.4mb 60f 60f
6:06 1 2 mph 1014.3mb 61f 60f
6:00 2 3 mph 1014.3mb 61f 59f
5:54 2
mph
1014.3mb 61f 59f
5:48 2 3 mph 1014.2mb 61f 59f
5:42 2 3 mph 1014.2mb 61f 59f
5:36 3 5 mph 1014.1mb 61f 59f
5:30 5
mph
1014.1mb 62f 59f
5:24 3
mph
1014mb 62f 60f
5:18  -  2 mph 1014mb 62f 60f
5:12  -  2 mph 1014mb 62f 60f
5:06 3 5 mph 1014.1mb 62f 60f
5:00  -  1 mph 1014.1mb 62f 60f
4:48 5
mph
1014.1mb 62f 60f
4:42 5 6 mph 1014.1mb 62f 60f
4:36 3 6 mph 1014.1mb 62f 60f
4:30 5
mph
1014mb 62f 60f
4:24 5
mph
1014mb 62f 60f
4:18 3 5 mph 1013.9mb 62f 60f
4:12 2 3 mph 1013.9mb 62f 60f
4:06  -  2 mph 1014mb 62f 60f
4:00 2
mph
1013.9mb 62f 60f
3:54 1 2 mph 1014mb 62f 60f
3:48 2 3 mph 1014mb 62f 60f
3:42 2 6 mph 1014mb 62f 60f
3:36 3 6 mph 1014mb 62f 60f
3:30  -  1 mph 1014mb 62f 60f
3:24 1 2 mph 1014mb 62f 60f
3:18 1 2 mph 1014.1mb 62f 60f
3:12  -  1 mph 1014.1mb 62f 60f
3:06  -  mph 1014.1mb 62f 60f
3:00  -  mph 1014.1mb 62f 60f
2:54  -  mph 1014.1mb 62f 60f
2:48  -  2 mph 1014.1mb 62f 60f
2:42  -  2 mph 1014.1mb 62f 59f
2:36  -  1 mph 1014.2mb 62f 59f
2:30  -  2 mph 1014.2mb 62f 59f
2:24  -  2 mph 1014.2mb 62f 59f
2:18 2 3 mph 1014.2mb 62f -
2:12 1 2 mph 1014.3mb 62f -
2:06 1 2 mph 1014.3mb 62f -
2:00 2
mph
1014.4mb 62f 59f
1:54 1 2 mph 1014.4mb 62f 59f
1:48  -  2 mph 1014.5mb 62f 59f
1:42 1 2 mph 1014.5mb 62f 59f
1:36 2 5 mph 1014.5mb 62f 59f
1:30 3 5 mph 1014.5mb 62f 59f
1:24  -  3 mph 1014.5mb 62f 60f
1:18 1 5 mph 1014.5mb 62f 59f
1:12  -  3 mph 1014.4mb 62f 59f
1:06 2 6 mph 1014.5mb 62f 59f
1:00 2 3 mph 1014.5mb 62f 60f
12:54  -  1 mph 1014.5mb 62f 59f
12:48  -  3 mph 1014.6mb 62f 59f
12:42 3
mph
1014.6mb 62f 59f
12:36 2
mph
1014.7mb 62f 59f
12:30 2
mph
1014.6mb 62f 59f
12:24 2 3 mph 1014.7mb 62f 60f
12:18 2 3 mph 1014.7mb 62f 60f
12:12 2
mph
1014.6mb 62f 60f
12:06 1 2 mph 1014.6mb 62f 60f
12:00  -  mph - 62f -
Do 05/28 11:54  -  mph - 62f -
11:48  -  mph - 62f -
11:42  -  mph - 62f -
11:36  -  mph - 62f -
11:30 2 3 mph 1014.6mb 62f 59f
11:24 2 3 mph 1014.7mb 62f 60f
11:18  -  2 mph 1014.7mb 62f 60f
11:12 1 3 mph 1014.7mb 62f -
11:06 3 5 mph 1014.7mb 62f -
11:00 3 5 mph 1014.7mb 62f 60f
10:54 3 5 mph 1014.8mb 62f 60f
10:48 3 5 mph 1014.8mb 62f 60f
10:42 3 5 mph 1014.9mb 62f 60f
10:36 5
mph
1014.8mb 62f 60f
10:30 3 5 mph 1014.8mb 62f 60f
10:24 5
mph
1014.9mb 62f 60f
10:18 3 5 mph 1014.8mb 62f 60f
10:12 5 6 mph 1014.8mb 62f 60f
10:06 5 6 mph 1014.8mb 62f 60f
10:00 5 6 mph 1014.7mb 62f 60f
9:54 6
mph
1014.7mb 62f 60f
9:48 5 6 mph 1014.5mb 62f 60f
9:42 6
mph
1014.5mb 62f 60f
9:36 6 8 mph 1014.5mb 62f 60f
9:30 7 8 mph 1014.4mb 62f 60f
9:24 6 9 mph 1014.3mb 62f 60f
9:18 8 9 mph 1014.3mb 62f 60f
9:12 8 9 mph 1014.2mb 61f 60f
9:06 8 9 mph 1014.2mb 61f 60f
9:00 8 9 mph 1014.1mb 61f 60f
8:54 8 9 mph 1014.1mb 61f 60f
8:48 9 10 mph 1014mb 61f 59f
8:42 9 10 mph 1013.9mb 61f 59f
8:36 9 10 mph 1013.8mb 62f 59f
8:30 8 10 mph 1013.8mb 62f 59f
8:24 10 11 mph 1013.7mb 62f 59f
8:18 10 11 mph 1013.7mb 62f 59f
8:12 10 11 mph 1013.8mb 62f 59f
8:06 10 11 mph 1013.9mb 63f 59f
8:00 10 11 mph 1013.8mb 62f 59f
7:54 10 11 mph 1013.7mb 62f 59f
7:48 10 11 mph 1013.7mb 62f 59f
7:42 10 11 mph 1013.6mb 62f 60f
7:36 10 11 mph 1013.6mb 62f 60f
7:30 11 13 mph 1013.6mb 62f 60f
7:24 11 13 mph 1013.6mb 62f 60f
7:18 10 13 mph 1013.5mb 62f 60f
7:12 13 14 mph 1013.5mb 62f 60f
7:06 11 14 mph 1013.5mb 62f 60f
7:00 10 13 mph 1013.4mb 62f 60f
6:54 11 13 mph 1013.3mb 62f 60f
6:48 13 14 mph 1013.3mb 62f 60f
6:42 11 14 mph 1013.3mb 62f 60f
6:36 14 15 mph 1013.4mb 63f 61f
6:30 11 14 mph 1013.3mb 62f 61f
6:24 11 14 mph 1013.3mb 62f 61f
6:18 14 15 mph 1013.3mb 62f 61f
6:12 11 14 mph 1013.3mb 62f 61f
6:06 13 14 mph 1013.2mb 62f 61f
6:00 11 13 mph 1013.4mb 62f 61f
5:54 11 14 mph 1013.4mb 63f 61f
5:48 13 14 mph 1013.6mb 63f 61f
5:42 13 14 mph 1013.7mb 62f 61f
5:36 13 14 mph 1013.6mb 63f 61f
5:30 11 14 mph 1013.6mb 64f 61f
5:24 13 14 mph 1013.7mb 64f 61f
5:18 11 13 mph 1013.7mb 63f 61f
5:12 11
mph
1013.6mb 63f 61f
5:06 10 13 mph 1013.7mb 63f 61f
5:00 11 13 mph 1013.8mb 63f 61f
4:54 11 13 mph 1013.8mb 63f 61f
4:48 11 13 mph 1013.9mb 63f 61f
4:42 11 13 mph 1013.9mb 63f 61f
4:36 10 11 mph 1013.9mb 63f 61f
4:30 10 11 mph 1013.8mb 63f 61f
4:24 10 11 mph 1014mb 63f 61f
4:12 8 9 mph 1013.9mb 63f 61f
4:06 9
mph
1013.9mb 63f 61f
4:00 8 10 mph 1013.9mb 63f 61f
3:54 9 10 mph 1014mb 63f 61f
3:48 8 9 mph 1013.9mb 63f 61f
3:42 8 9 mph 1014mb 63f 61f
3:36 8 10 mph 1014.2mb 63f 61f
3:30 9 10 mph 1014.3mb 63f 61f
3:24 10 11 mph 1014.5mb 63f 61f
3:18 11 13 mph 1014.7mb 63f 61f
3:12 10 11 mph 1014.7mb 63f 61f
3:06 9 11 mph 1014.7mb 63f 61f
3:00 9 10 mph 1014.7mb 63f 61f
2:54 10 11 mph 1014.9mb 63f 61f
2:48 9 11 mph 1015mb 63f 61f
2:42 9 10 mph 1015mb 63f 61f
2:36 9 11 mph 1015mb 63f 61f
2:30 9 10 mph 1015mb 63f 61f
2:24 10 11 mph 1015.1mb 63f 61f
2:18 10 11 mph 1015.1mb 63f 61f
2:12 9 10 mph 1015.2mb 62f 61f
2:06 9 10 mph 1015.3mb 62f 61f
2:00 10 11 mph 1015.4mb 62f 60f
1:54 10 11 mph 1015.5mb 62f 60f
1:48 9 10 mph 1015.5mb 62f 60f
1:42 9 11 mph 1015.5mb 62f 60f
1:36 9 10 mph 1015.6mb 62f 61f
1:30 9
mph
1015.7mb 62f 60f
1:24 8
mph
1015.7mb 62f 60f
1:18 7 8 mph 1015.7mb 62f 60f
1:12 7 8 mph 1015.7mb 62f 60f
1:06 7 8 mph 1015.8mb 62f 60f
1:00 6 7 mph 1015.8mb 62f 60f
12:54 6 7 mph 1015.8mb 62f 60f
12:48 6 7 mph 1015.8mb 62f 60f
12:42 6 8 mph 1015.9mb 62f 60f
12:36 6 7 mph 1015.9mb 62f 60f
12:30 7
mph
1015.9mb 62f 60f
12:24 6 7 mph 1016mb 62f 60f
12:18 7
mph
1016.2mb 62f 60f
12:12 6 7 mph 1016.2mb 61f 60f
12:06 7 8 mph 1016.3mb 61f 60f
12:00 7 8 mph 1016.4mb 61f 60f
11:54 7 8 mph 1016.5mb 61f 60f
11:48 8 9 mph 1016.5mb 61f 60f
11:42 7 8 mph 1016.6mb 61f 60f
11:36 7 8 mph 1016.6mb 61f 60f
11:30 7 8 mph 1016.6mb 61f 60f
11:24 7 8 mph 1016.6mb 61f 60f
11:18 6 7 mph 1016.7mb 61f 60f
11:12 6 7 mph 1016.7mb 61f 60f
11:06 6 8 mph 1016.7mb 61f 60f
11:00 7 8 mph 1016.7mb 61f 60f
10:54 6 7 mph 1016.6mb 61f 60f
10:48 6
mph
1016.6mb 61f 60f
10:42 6
mph
1016.5mb 61f 60f
10:36 6
mph
1016.4mb 61f 60f
10:30 6
mph
1016.4mb 61f 59f
10:24 6 7 mph 1016.4mb 61f 59f
10:18 7 10 mph 1016.3mb 61f 59f
10:12 7
mph
1016.4mb 61f 59f
10:06 6 7 mph 1016.3mb 60f 59f
10:00 6 7 mph 1016.3mb 60f 60f
9:54 6 7 mph 1016.4mb 60f 59f
9:48 5 6 mph 1016.3mb 60f 59f
9:42 5 6 mph 1016.2mb 60f 59f
9:36 5 6 mph 1016.3mb 60f 59f
9:30 6
mph
1016.3mb 60f 59f
9:24 6
mph
1016.3mb 60f 59f
9:18  -  mph 1016.3mb 60f 59f
9:12  -  mph 1016.3mb 60f 59f
9:06  -  mph 1016.4mb 60f 59f
9:00 5 6 mph 1016.4mb 60f 59f
8:54 5 6 mph 1016.4mb 60f 59f
8:48 6
mph
1016.4mb 60f 59f
8:42 5 6 mph 1016.4mb 60f 59f
8:36 5 6 mph 1016.4mb 60f 59f
8:30 5
mph
1016.3mb 60f 59f
8:24 3 5 mph 1016.3mb 60f 59f
8:18 3 5 mph 1016.2mb 60f 59f
8:12 2 3 mph 1016.2mb 60f 59f
8:06 3
mph
1016.2mb 60f 59f
8:00 3 5 mph 1016.2mb 60f 59f
7:54 2 3 mph 1016.1mb 60f 59f
7:48 2 5 mph 1016.1mb 60f 59f
7:42 1 3 mph 1016mb 60f 59f
7:36 2 3 mph 1016mb 60f 59f
7:30 3
mph
1016mb 60f 58f
7:24 2 3 mph 1015.9mb 60f 58f
7:18 2 3 mph 1015.9mb 60f 58f
7:12  -  2 mph 1015.8mb 60f 59f
7:06 1 2 mph 1015.8mb 60f 58f
7:00 2
mph
1015.8mb 60f 58f
6:54 2 3 mph 1015.7mb 60f 58f
6:48 2
mph
1015.6mb 60f 58f
6:42  -  1 mph 1015.6mb 60f 58f
6:36  -  1 mph 1015.6mb 60f 58f
6:30  -  3 mph 1015.5mb 60f 58f
6:24 3 5 mph 1015.5mb 60f 58f
6:18 6 7 mph 1015.4mb 60f 58f
6:12 5 6 mph 1015.4mb 60f 58f
6:06 5 7 mph 1015.3mb 60f 58f
6:00 6 7 mph 1015.2mb 60f 58f
5:54 5 6 mph 1015.2mb 60f 58f
5:48  -  2 mph 1015.1mb 60f 59f
5:42 2 3 mph 1015mb 60f 58f
5:36 2 3 mph 1014.9mb 60f 58f
5:30 2 3 mph 1014.9mb 60f 58f
5:24 2 5 mph 1014.9mb 60f 58f
5:18 1 2 mph 1015mb 59f 58f
5:12  -  2 mph 1014.9mb 59f 58f
5:06 1 5 mph 1014.9mb 59f 58f
5:00 3 6 mph 1014.9mb 60f 58f
4:54 6 7 mph 1014.9mb 60f 58f
4:48 5 6 mph 1014.9mb 60f 58f
4:42 3
mph
1014.8mb 60f 58f
4:36 3 6 mph 1014.8mb 60f 58f
4:30 3 6 mph 1014.8mb 60f 58f
4:24 5 7 mph 1014.6mb 60f 58f
4:18 5 7 mph 1014.6mb 60f 58f
4:12 3 5 mph 1014.5mb 60f 58f
4:06 3 5 mph 1014.5mb 60f 58f
4:00  -  2 mph 1014.5mb 60f 58f
3:54 1 6 mph 1014.6mb 61f 58f
3:48 5 6 mph 1014.6mb 61f 58f
3:42 2 3 mph 1014.6mb 61f 58f
3:36  -  2 mph 1014.6mb 62f 58f
3:30 1 2 mph 1014.6mb - 58f
3:24 2 5 mph 1014.7mb - 58f
3:18  -  3 mph 1014.7mb 62f 58f
3:12 2
mph
1014.7mb 62f 58f
3:06 2
mph
1014.7mb 62f 58f
3:00 1 3 mph 1014.7mb 62f 58f
2:54 3 5 mph 1014.7mb 62f 58f
2:48 2 3 mph 1014.7mb 62f 58f
2:42 1 2 mph 1014.8mb 62f 58f
2:36 1 2 mph 1014.8mb 62f 58f
2:30 1 3 mph 1014.9mb 62f 58f
2:24 1 2 mph 1014.9mb 62f 58f
2:18  -  1 mph 1015mb 62f 58f
2:12  -  1 mph 1015mb 62f 58f
2:06  -  mph 1015mb 62f 58f
2:00  -  1 mph 1015mb 62f 58f
1:54  -  1 mph 1015mb 62f 58f
1:48  -  1 mph 1015mb 62f 58f
1:42 1 2 mph 1015.1mb 62f 58f
1:36 2
mph
1015.1mb 62f 58f
1:30 1 2 mph 1015.2mb 62f 58f
1:24 2
mph
1015.2mb 62f 58f
1:18 1 2 mph 1015.2mb 62f 58f
1:12  -  1 mph 1015.2mb 62f 59f
1:06 1 2 mph 1015.2mb 62f 59f
1:00  -  1 mph 1015.3mb 62f 59f
12:54  -  2 mph 1015.4mb 62f 59f
12:48 1 3 mph 1015.5mb 62f 59f
12:42 2 3 mph 1015.5mb 62f 58f
12:36 2
mph
1015.6mb 62f 58f
12:30 2 3 mph 1015.6mb 62f 59f
12:24 1 3 mph 1015.6mb 62f 58f
12:18 2
mph
- 62f 58f
12:12 1 2 mph - 62f 58f
12:06 1 2 mph - 62f 58f
12:00 2
mph
1015.7mb 62f 59f
Mi 05/27 11:54 1
mph
1015.7mb 62f 59f
11:48  -  1 mph 1015.8mb 62f 59f
11:42  -  2 mph 1015.8mb 62f 59f
11:36 2
mph
1015.8mb 62f 59f
11:30  -  3 mph 1015.8mb 62f 59f
11:24 2 3 mph 1015.8mb 62f 59f
11:18  -  1 mph 1015.8mb 62f 59f
11:12 1 2 mph 1015.8mb 62f 59f
11:06 1 2 mph 1015.8mb 62f 59f
11:00  -  5 mph 1015.8mb 62f 59f
10:54 5 6 mph 1015.8mb 62f 59f
10:48 5 6 mph 1015.9mb 62f 59f
10:42 6
mph
1015.8mb 62f 59f
10:36 6
mph
1015.8mb 62f 59f
10:30 3 5 mph 1015.8mb 62f 59f
10:24 5
mph
1015.7mb 62f 59f
10:18 3 5 mph 1015.7mb 62f 59f
10:12 3
mph
1015.7mb 62f 59f
10:06 2 3 mph 1015.6mb 62f 59f
10:00 2 5 mph 1015.6mb 62f 59f
9:54 3 5 mph 1015.6mb 62f 59f
9:48 2 3 mph 1015.6mb 63f 59f
9:42 2 3 mph 1015.5mb 63f 59f
9:36 2
mph
1015.4mb 63f 59f
9:30 2 3 mph 1015.4mb 62f 59f
9:24 2 3 mph 1015.3mb 62f 59f
9:18 3
mph
1015.3mb 63f 59f
9:12 3
mph
1015.2mb 63f 59f
9:06 3 5 mph 1015.2mb 63f 59f
9:00 5 6 mph 1015.2mb 63f 59f
8:54 5 7 mph 1015.3mb 63f 59f
8:48 6 7 mph 1015.2mb 62f 59f
8:42 7 8 mph 1015.3mb 62f 59f
8:36 8 9 mph 1015.3mb 62f 60f
8:30 9
mph
1015.3mb 62f 59f
8:24 9
mph
1015.3mb 62f 59f
8:18 8 9 mph 1015.3mb 62f 59f
8:12 9 11 mph 1015.2mb 62f 60f
8:06 9 11 mph 1015.2mb 62f 60f
8:00 10 11 mph 1015.2mb 62f 60f
7:54 11
mph
1015.2mb 62f 60f
7:48 10 13 mph 1015.1mb 62f 60f
7:42 10 13 mph 1015.1mb 62f 60f
7:36 11 13 mph 1015.1mb 62f 60f
7:30 13 14 mph 1015.1mb 62f 60f
7:24 13 14 mph 1015mb 62f 60f
7:18 11 14 mph 1015mb 62f 60f
7:12 13 14 mph 1014.9mb 63f 60f
7:06 11 14 mph 1014.9mb 63f 60f
7:00 13 14 mph 1014.8mb 63f 60f
6:54 13 14 mph 1014.8mb 63f 60f
6:48 10 11 mph 1014.8mb 63f 60f
6:42 10 13 mph 1014.7mb 63f 60f
6:36 11 13 mph 1014.7mb 63f 60f
6:30 11 14 mph 1014.7mb 63f 60f
6:24 11 14 mph 1014.7mb 63f 60f
6:18 13 14 mph 1014.7mb 63f 60f
6:12 13 14 mph 1014.7mb 63f 60f
6:06 13 14 mph 1014.7mb 63f 60f
6:00 13 14 mph 1014.7mb 63f 60f
5:54 11 14 mph 1014.6mb 63f 61f
5:48 14
mph
1014.5mb 63f 60f
5:42 14
mph
1014.6mb 63f 60f
5:36 13 15 mph 1014.6mb 63f 60f
5:30 13 15 mph 1014.7mb 63f 60f
5:24 13 15 mph 1014.7mb 63f 60f
5:18 14 15 mph 1014.7mb 63f 60f
5:12 14 15 mph 1014.8mb 63f 60f
5:06 14 15 mph 1014.8mb 63f 60f
5:00 15 16 mph 1014.9mb 63f 60f
4:54 14 16 mph 1014.9mb 63f 60f
4:48 14 16 mph 1014.9mb 63f 60f
4:42 15 16 mph 1014.9mb 63f 60f
4:36 14 16 mph 1014.9mb 63f 60f
4:30 14 16 mph 1014.9mb 63f 60f
4:24 14 16 mph 1014.9mb 63f 60f
4:18 14 15 mph 1014.9mb 62f 60f
4:12 14
mph
1015mb 62f 60f
4:06 11 13 mph 1014.9mb 62f 60f
4:00 11 13 mph 1015mb 62f 60f
3:54 11 13 mph 1015.1mb 62f 60f
3:48 11
mph
1015.1mb 62f 60f
3:00 10 11 mph 1015.5mb 62f 61f
2:54 10 11 mph 1015.5mb 62f 61f
2:48 10 11 mph 1015.5mb 62f 61f
2:30 9 10 mph 1015.5mb 61f 61f
2:24 9 10 mph 1015.5mb 61f 61f
2:18 9 10 mph 1015.5mb 61f 61f
2:12 9 10 mph 1015.6mb 61f 61f
2:06 9 10 mph 1015.7mb 61f 61f
2:00 9 10 mph 1015.7mb 61f 61f
1:54 9 10 mph 1015.8mb 61f 61f
1:48 9 10 mph 1015.8mb 61f 61f
1:42 8 10 mph 1015.9mb 61f 61f
1:36 9 10 mph 1015.9mb 61f 61f
1:30 9 10 mph 1016mb 61f 61f
1:24 9 11 mph 1016.1mb 61f 61f
1:18 10 11 mph 1016.2mb 60f 61f
1:12 10 11 mph 1016.2mb 60f 61f
1:06 9 10 mph 1016.2mb 60f 61f
1:00 9 10 mph 1016.3mb 60f 61f
12:54 9 11 mph 1016.3mb 60f 60f
12:48 10
mph
1016.3mb 60f 60f
12:42 10
mph
1016.3mb 60f 60f
12:36 9 10 mph 1016.3mb 60f 60f
12:30 9 10 mph 1016.3mb 60f 60f
12:24 8 9 mph 1016.3mb 60f 60f
12:18 8
mph
1016.3mb 60f 60f
12:12 7 8 mph 1016.2mb 60f 61f
12:06 7 8 mph 1016.2mb 60f 61f
12:00 7 8 mph 1016.2mb 60f 61f
11:54 7 8 mph 1016.2mb 60f 61f
11:48 7 8 mph 1016.2mb 60f 61f
11:42 7 8 mph 1016.3mb 60f 61f
11:36 7 8 mph 1016.4mb 60f 61f
11:30 7
mph
1016.5mb 60f 61f
11:24 6
mph
1016.5mb 60f 61f
11:18 5
mph
1016.4mb 60f 61f
11:12 3 5 mph 1016.4mb 60f 61f
11:06 3
mph
1016.3mb 59f 61f
11:00 3 5 mph 1016.4mb 59f 61f
10:54 5
mph
1016.5mb 59f 61f
10:48 3 5 mph 1016.4mb 59f 61f
10:42 3
mph
1016.3mb 59f 61f
10:36 3
mph
1016.2mb 59f 61f
10:30 3 5 mph 1016.2mb 59f 61f
10:24 5
mph
1016.3mb 59f 61f
10:18 5
mph
1016.3mb 59f 60f
10:12 5
mph
1016.3mb 59f 60f
10:06 5
mph
1016.2mb 59f 60f
10:00 3 5 mph 1016.2mb 59f 60f
9:54 5 6 mph 1016.2mb 59f 60f
9:48 6
mph
1016.2mb 59f 60f
9:42 5 6 mph 1016.3mb 59f 60f
9:36 5
mph
1016.2mb 59f 60f
9:30 5 6 mph 1016.3mb 59f 60f
9:24 5 6 mph 1016.4mb 59f 60f
9:18 5
mph
1016.3mb 60f 60f
9:12 3
mph
1016.3mb 60f 60f
9:06 3
mph
1016.4mb 59f 60f
9:00 3
mph
1016.4mb 59f 60f
8:54 3 6 mph 1016.5mb 59f 60f
8:48 5 6 mph 1016.5mb 59f 60f
8:42 6
mph
1016.4mb 58f 60f
8:36 5 6 mph 1016.4mb 58f 60f
8:30 5
mph
1016.3mb 58f 60f
8:24 5 6 mph 1016.3mb 58f 59f
8:18 5 6 mph 1016.2mb 59f 59f
8:12 6
mph
1016.2mb 59f 59f
8:06 6
mph
1016.3mb 59f 59f
8:00 6
mph
1016.3mb 59f 59f
7:54 5 6 mph 1016.2mb 59f 59f
7:48 5 6 mph 1016.2mb 59f 59f
7:42 3
mph
1016.1mb 59f 59f
7:36 3 5 mph 1016.1mb 58f 59f
7:30 5 6 mph 1016.1mb 58f 59f
7:24 3 5 mph 1016mb 58f 59f
7:18 3 5 mph 1015.9mb 58f 59f
7:12 2 3 mph 1015.8mb 59f 59f
7:06 3 5 mph 1015.8mb 59f 59f
7:00 5 6 mph 1015.8mb 59f 59f
6:54 6
mph
1015.8mb 59f 59f
6:48 6
mph
1015.8mb 59f 59f
6:42 6
mph
1015.8mb 59f 59f
6:36 6
mph
1015.7mb 58f 59f
6:30 3
mph
1015.6mb 58f 59f
6:24 1 2 mph 1015.6mb 58f 59f
6:18 2 3 mph 1015.5mb 58f 59f
6:12 2 3 mph 1015.5mb 58f 59f
6:06 2 3 mph 1015.4mb 58f 59f
6:00 2
mph
1015.3mb 58f 59f
5:54  -  3 mph 1015.2mb 58f 59f
5:48 2
mph
1015.3mb 58f 59f
5:42  -  2 mph 1015.2mb 58f 59f
5:36 2 3 mph 1015.3mb 59f 59f
5:30 2
mph
1015.2mb 59f 59f
5:24 1 3 mph 1015.2mb 59f 59f
5:18 3 5 mph 1015.3mb 60f 59f
5:12 3 5 mph 1015.3mb 60f 59f
5:06 2 3 mph 1015.3mb 60f 59f
5:00 3 5 mph 1015.3mb 59f 59f
4:54 3
mph
1015.3mb 59f 59f
4:48 2 3 mph 1015.3mb 59f 59f
4:42 2 3 mph 1015.2mb 59f 59f
4:36 2 3 mph 1015.2mb 59f 59f
4:30 2 3 mph 1015.2mb 59f 59f
4:24 2
mph
1015.3mb 59f 59f
4:18 1 3 mph 1015.3mb 59f 59f
4:12 2
mph
1015.4mb 59f 58f
4:06 2 5 mph 1015.5mb 59f 58f
4:00 5 6 mph 1015.6mb 59f 58f
3:54 3 6 mph 1015.6mb 60f 59f
3:48 3 6 mph 1015.6mb 60f 59f
3:42 3 5 mph 1015.7mb 60f 59f
3:36 3 5 mph 1015.6mb 60f 59f
3:30 3 5 mph 1015.6mb 60f 58f
3:24 5 6 mph 1015.7mb 60f 59f
3:18 6 7 mph 1015.7mb 60f 59f
3:12 7
mph
1015.8mb 60f 59f
3:06 7
mph
1015.8mb 60f 59f
3:00 6 7 mph 1015.8mb 60f 59f
2:54 5 7 mph 1015.8mb 60f 58f
2:48 5 6 mph 1015.8mb 60f 59f
2:42 5 6 mph - - -
2:36 5 6 mph - - -
2:30 6 7 mph 1015.9mb 60f 59f
2:24 7
mph
1015.9mb 60f 59f
2:18  -  mph 1015.9mb 60f 59f
2:12  -  mph 1015.9mb 60f 59f
2:06  -  mph 1015.9mb 60f 59f
2:00 2 3 mph 1015.9mb 60f 59f
1:54 1 2 mph 1015.9mb 60f 59f
1:48  -  1 mph 1015.8mb 60f 59f
1:42 1
mph
1015.9mb 60f 59f
1:36  -  2 mph 1015.9mb 60f 59f
1:30 1 2 mph 1015.9mb 60f 59f
1:24  -  1 mph 1015.9mb 60f 59f
1:18 1 2 mph 1015.9mb 60f 59f
1:12  -  2 mph 1015.9mb 60f 59f
1:06 1 2 mph 1015.9mb 60f 59f
1:00 2 3 mph 1015.9mb 60f 59f
12:54 3
mph
1016mb 60f 59f
12:48 3 5 mph 1016mb 60f 59f
12:42 3
mph
1016mb 60f 59f
12:36 2 3 mph 1016mb 60f 59f
12:30  -  mph 1016mb 60f -
12:24  -  mph 1016mb - -
12:18 3
mph
1016mb 60f -
12:12 3 5 mph 1016.1mb 60f -
12:06 3 5 mph 1016.1mb 60f -
12:00 3 6 mph 1016.1mb 60f -
Di 05/26 11:54 5
mph
1016.1mb 60f -
11:48 3 6 mph 1016.1mb - -
11:42 5
mph
1016mb - -
11:36 6
mph
1016mb - -
11:30 5 6 mph 1016.1mb 60f 59f
11:24 5 6 mph 1016mb 60f 59f
11:18 6
mph
1016mb 60f 59f
11:12 6 7 mph 1016.1mb 60f 59f
11:06 6 7 mph 1016.1mb 60f 59f
11:00  -  mph - - 59f
10:54  -  mph - - 59f
10:48 6 7 mph 1016.1mb 60f 59f
10:42 6
mph
1016.1mb 60f 60f
10:36 5 6 mph 1016.1mb 60f 59f
10:30 6 7 mph 1016mb 60f 59f
10:24 5 6 mph 1016mb 60f 59f
10:18 6 7 mph 1016mb 60f 59f
10:12 5 6 mph 1015.9mb 60f 59f
10:06 5 6 mph 1015.9mb 60f 59f
10:00 6
mph
1015.9mb 60f 59f
9:54 5 6 mph 1015.8mb 60f 59f
9:48 5 6 mph 1015.8mb 60f 59f
9:42 3 5 mph 1015.7mb 60f 59f
9:36 3 5 mph 1015.7mb 60f 59f
9:30 2
mph
1015.6mb 60f 59f
9:24 2 3 mph 1015.5mb 60f 59f
9:18 3 5 mph 1015.5mb 60f 59f
9:12 3 5 mph 1015.5mb 60f 59f
9:06 3 6 mph 1015.4mb 60f 59f
9:00 5 7 mph 1015.4mb 60f 59f
8:54 6 7 mph 1015.3mb 60f 59f
8:48 7 8 mph 1015.2mb 60f 59f
8:42 7 9 mph 1015.3mb 59f 59f
8:36 9 10 mph 1015.2mb 59f 59f
8:30 8 10 mph 1015.3mb 60f 60f
8:24 8 11 mph 1015.3mb 60f 60f
8:18 10 11 mph 1015.2mb 60f 59f
8:12 10 11 mph 1015.2mb 60f 59f
8:06 10 13 mph 1015.2mb 60f 59f
8:00 10 13 mph 1015.2mb 60f 59f
7:54 13 14 mph 1015.2mb 61f 59f
7:48 13 15 mph 1015.2mb 61f 59f
7:42 14 16 mph 1015.2mb 60f 59f
7:36 14 17 mph 1015.2mb 60f 59f
7:30 16 17 mph 1015.3mb 60f 59f
7:24 15 20 mph 1015.3mb 60f 59f
7:18 17 18 mph 1015.3mb 60f 59f
7:12 16 18 mph 1015.3mb 61f 59f
7:06 17 20 mph 1015.2mb 61f 59f
7:00 17 18 mph 1015.1mb 61f 59f
6:54 17 20 mph 1015.1mb 61f 59f
6:48 16 18 mph 1015.1mb 61f 59f
6:42 16 17 mph 1015.1mb 61f 59f
6:36 15 17 mph 1015mb 61f 59f
6:30 14 16 mph 1014.9mb 61f 59f
6:24 14 15 mph 1014.9mb 61f 59f
6:18 14 17 mph 1014.9mb 61f 59f
6:12 14 15 mph 1015mb 61f 59f
6:06 14 16 mph 1015mb 61f 60f
6:00 15 16 mph 1015mb 61f 60f
5:54 14 15 mph 1015mb 61f 60f
5:48 13 15 mph 1014.9mb 61f 60f
5:42 14 15 mph 1015mb 61f 60f
5:36 14 16 mph 1015mb 61f 60f
5:30 14 16 mph 1015mb 60f 60f
5:24 15 16 mph 1015.1mb 60f 60f
5:18 15 16 mph 1015.1mb 61f 60f
5:12 13 15 mph 1015.1mb 61f 60f
5:06 14 16 mph 1015.1mb 61f 60f
5:00 14 16 mph 1015.1mb 61f 60f
4:54 11 14 mph 1015mb 60f 60f
4:48 11 14 mph 1015mb 60f 60f
4:42 11 15 mph 1015mb 60f 60f
4:36 13 15 mph 1015.1mb 60f 60f
4:30 14 15 mph 1015.2mb 61f 60f
4:24 13 14 mph 1015.2mb 61f 60f
4:18 14 15 mph 1015.1mb 60f 60f
4:12 14 16 mph 1015.2mb 61f 60f
4:06 14 17 mph 1015.4mb 61f 60f
4:00 15 16 mph 1015.4mb 61f 59f
3:54 15 16 mph 1015.4mb 60f 60f
3:48 15 16 mph 1015.5mb 61f 60f
3:42 14 16 mph 1015.5mb 61f 59f
3:36 14 15 mph 1015.5mb 61f 60f
3:30 14 16 mph 1015.6mb 61f 60f
3:24 14 16 mph 1015.7mb 61f 60f
3:18 14 15 mph 1015.7mb 61f 60f
3:12 14 15 mph 1015.8mb 61f 60f
3:06 13 14 mph 1015.8mb 61f 60f
3:00 13 14 mph 1015.8mb 61f 60f
2:54 13 14 mph 1015.9mb 61f 60f
2:48 11 13 mph 1015.9mb 61f 60f
2:42 11 13 mph 1015.9mb 61f 60f
2:36 11 13 mph 1015.9mb 61f 60f
2:30 11 13 mph 1015.9mb 61f 60f
2:24 11 13 mph 1015.9mb 61f 60f
2:18 11 13 mph 1015.9mb 61f 60f
2:12 11 13 mph 1016mb 61f 60f
2:06 11 13 mph 1016mb 61f 60f
2:00 10 11 mph 1016mb 61f 60f
1:54 10 11 mph 1016mb 61f 60f
1:48 10 11 mph 1016.1mb 61f 60f
1:42 10 11 mph 1016.1mb 61f 60f
1:36 10
mph
1016.2mb 61f 60f
1:30 10 11 mph 1016.2mb 61f 60f
1:24 10 11 mph 1016.2mb 61f 60f
1:18 10 11 mph 1016.3mb 61f 60f
1:12 10 11 mph 1016.3mb 61f 60f
1:06 9 10 mph 1016.3mb 61f 60f
1:00 10
mph
1016.3mb 61f 60f
12:54 9 10 mph 1016.3mb 61f 60f
12:48 9 10 mph 1016.4mb 61f 60f
12:42 9 10 mph 1016.4mb 61f 60f
12:36 9 10 mph 1016.5mb 61f 60f
12:30 10
mph
1016.5mb 61f 60f
12:24 9 10 mph 1016.6mb 61f 60f
12:18 9 10 mph 1016.5mb 61f 60f
12:12 9
mph
1016.6mb 61f 60f
12:06 8 9 mph 1016.6mb 61f 60f
12:00 8 10 mph 1016.6mb 61f 60f
11:54 9 10 mph 1016.7mb 61f 60f
11:48 9 10 mph 1016.6mb 61f 60f